sensor_id;sensor_type;location;lat;lon;timestamp;P1;durP1;ratioP1;P2;durP2;ratioP2
16890;SDS011;8562;52.246;20.966;2023-07-29T00:02:22;5.23;;;4.53;;
16890;SDS011;8562;52.246;20.966;2023-07-29T00:04:47;6.70;;;4.67;;
16890;SDS011;8562;52.246;20.966;2023-07-29T00:07:12;5.13;;;4.33;;
16890;SDS011;8562;52.246;20.966;2023-07-29T00:09:38;6.90;;;4.50;;
16890;SDS011;8562;52.246;20.966;2023-07-29T00:12:03;5.83;;;4.23;;
16890;SDS011;8562;52.246;20.966;2023-07-29T00:14:29;4.70;;;4.27;;
16890;SDS011;8562;52.246;20.966;2023-07-29T00:16:54;5.23;;;4.67;;
16890;SDS011;8562;52.246;20.966;2023-07-29T00:19:19;5.30;;;4.50;;
16890;SDS011;8562;52.246;20.966;2023-07-29T00:21:48;5.83;;;4.07;;
16890;SDS011;8562;52.246;20.966;2023-07-29T00:24:13;11.37;;;5.50;;
16890;SDS011;8562;52.246;20.966;2023-07-29T00:26:38;7.17;;;5.10;;
16890;SDS011;8562;52.246;20.966;2023-07-29T00:29:04;4.90;;;4.40;;
16890;SDS011;8562;52.246;20.966;2023-07-29T00:31:29;7.23;;;4.93;;
16890;SDS011;8562;52.246;20.966;2023-07-29T00:33:56;5.67;;;4.87;;
16890;SDS011;8562;52.246;20.966;2023-07-29T00:36:23;6.93;;;4.77;;
16890;SDS011;8562;52.246;20.966;2023-07-29T00:38:50;6.10;;;5.50;;
16890;SDS011;8562;52.246;20.966;2023-07-29T00:41:15;8.33;;;5.80;;
16890;SDS011;8562;52.246;20.966;2023-07-29T00:43:41;7.13;;;5.37;;
16890;SDS011;8562;52.246;20.966;2023-07-29T00:46:07;7.93;;;5.77;;
16890;SDS011;8562;52.246;20.966;2023-07-29T00:48:35;8.63;;;5.17;;
16890;SDS011;8562;52.246;20.966;2023-07-29T00:51:01;8.20;;;6.03;;
16890;SDS011;8562;52.246;20.966;2023-07-29T00:53:26;6.27;;;5.17;;
16890;SDS011;8562;52.246;20.966;2023-07-29T00:55:52;8.10;;;6.17;;
16890;SDS011;8562;52.246;20.966;2023-07-29T00:58:17;7.73;;;5.70;;
16890;SDS011;8562;52.246;20.966;2023-07-29T01:00:42;11.30;;;6.73;;
16890;SDS011;8562;52.246;20.966;2023-07-29T01:03:08;7.37;;;5.77;;
16890;SDS011;8562;52.246;20.966;2023-07-29T01:05:39;10.63;;;6.97;;
16890;SDS011;8562;52.246;20.966;2023-07-29T01:08:09;11.40;;;6.63;;
16890;SDS011;8562;52.246;20.966;2023-07-29T01:13:10;9.03;;;6.70;;
16890;SDS011;8562;52.246;20.966;2023-07-29T01:15:55;12.93;;;7.93;;
16890;SDS011;8562;52.246;20.966;2023-07-29T01:18:22;8.50;;;5.93;;
16890;SDS011;8562;52.246;20.966;2023-07-29T01:20:48;9.27;;;6.83;;
16890;SDS011;8562;52.246;20.966;2023-07-29T01:23:15;9.47;;;6.73;;
16890;SDS011;8562;52.246;20.966;2023-07-29T01:25:40;13.67;;;7.30;;
16890;SDS011;8562;52.246;20.966;2023-07-29T01:28:06;11.87;;;7.30;;
16890;SDS011;8562;52.246;20.966;2023-07-29T01:30:33;7.80;;;6.37;;
16890;SDS011;8562;52.246;20.966;2023-07-29T01:33:10;9.87;;;6.67;;
16890;SDS011;8562;52.246;20.966;2023-07-29T01:38:05;10.10;;;7.03;;
16890;SDS011;8562;52.246;20.966;2023-07-29T01:40:31;9.80;;;6.40;;
16890;SDS011;8562;52.246;20.966;2023-07-29T01:42:58;6.80;;;6.10;;
16890;SDS011;8562;52.246;20.966;2023-07-29T01:45:24;9.80;;;5.90;;
16890;SDS011;8562;52.246;20.966;2023-07-29T01:47:50;8.83;;;6.50;;
16890;SDS011;8562;52.246;20.966;2023-07-29T01:50:16;7.27;;;5.37;;
16890;SDS011;8562;52.246;20.966;2023-07-29T01:52:41;11.67;;;8.00;;
16890;SDS011;8562;52.246;20.966;2023-07-29T01:55:07;8.57;;;6.17;;
16890;SDS011;8562;52.246;20.966;2023-07-29T01:57:32;10.10;;;6.17;;
16890;SDS011;8562;52.246;20.966;2023-07-29T01:59:58;8.10;;;5.83;;
16890;SDS011;8562;52.246;20.966;2023-07-29T02:02:23;8.87;;;6.33;;
16890;SDS011;8562;52.246;20.966;2023-07-29T02:04:48;6.77;;;5.33;;
16890;SDS011;8562;52.246;20.966;2023-07-29T02:07:17;9.30;;;6.53;;
16890;SDS011;8562;52.246;20.966;2023-07-29T02:09:43;7.27;;;5.63;;
16890;SDS011;8562;52.246;20.966;2023-07-29T02:12:08;9.80;;;6.43;;
16890;SDS011;8562;52.246;20.966;2023-07-29T02:14:36;8.40;;;5.93;;
16890;SDS011;8562;52.246;20.966;2023-07-29T02:17:01;10.00;;;5.37;;
16890;SDS011;8562;52.246;20.966;2023-07-29T02:19:26;9.20;;;5.70;;
16890;SDS011;8562;52.246;20.966;2023-07-29T02:21:52;8.23;;;5.90;;
16890;SDS011;8562;52.246;20.966;2023-07-29T02:24:17;6.77;;;5.50;;
16890;SDS011;8562;52.246;20.966;2023-07-29T02:26:42;8.97;;;6.17;;
16890;SDS011;8562;52.246;20.966;2023-07-29T02:29:08;12.53;;;6.60;;
16890;SDS011;8562;52.246;20.966;2023-07-29T02:31:33;7.20;;;6.03;;
16890;SDS011;8562;52.246;20.966;2023-07-29T02:34:00;11.10;;;5.23;;
16890;SDS011;8562;52.246;20.966;2023-07-29T02:36:25;8.57;;;6.33;;
16890;SDS011;8562;52.246;20.966;2023-07-29T02:38:50;7.37;;;5.57;;
16890;SDS011;8562;52.246;20.966;2023-07-29T02:41:16;9.80;;;5.63;;
16890;SDS011;8562;52.246;20.966;2023-07-29T02:43:42;8.87;;;5.80;;
16890;SDS011;8562;52.246;20.966;2023-07-29T02:46:07;8.40;;;6.80;;
16890;SDS011;8562;52.246;20.966;2023-07-29T02:48:32;8.70;;;6.30;;
16890;SDS011;8562;52.246;20.966;2023-07-29T02:50:58;7.90;;;5.97;;
16890;SDS011;8562;52.246;20.966;2023-07-29T02:53:23;8.77;;;6.83;;
16890;SDS011;8562;52.246;20.966;2023-07-29T02:55:48;8.87;;;6.57;;
16890;SDS011;8562;52.246;20.966;2023-07-29T02:58:14;8.43;;;6.47;;
16890;SDS011;8562;52.246;20.966;2023-07-29T03:00:39;8.70;;;6.87;;
16890;SDS011;8562;52.246;20.966;2023-07-29T03:03:07;11.87;;;7.90;;
16890;SDS011;8562;52.246;20.966;2023-07-29T03:05:32;10.93;;;7.40;;
16890;SDS011;8562;52.246;20.966;2023-07-29T03:07:58;8.50;;;6.57;;
16890;SDS011;8562;52.246;20.966;2023-07-29T03:10:23;12.17;;;7.53;;
16890;SDS011;8562;52.246;20.966;2023-07-29T03:12:48;9.00;;;6.63;;
16890;SDS011;8562;52.246;20.966;2023-07-29T03:15:14;10.00;;;7.00;;
16890;SDS011;8562;52.246;20.966;2023-07-29T03:17:39;10.03;;;7.23;;
16890;SDS011;8562;52.246;20.966;2023-07-29T03:20:05;8.70;;;6.90;;
16890;SDS011;8562;52.246;20.966;2023-07-29T03:22:30;9.60;;;6.70;;
16890;SDS011;8562;52.246;20.966;2023-07-29T03:24:55;10.47;;;7.13;;
16890;SDS011;8562;52.246;20.966;2023-07-29T03:27:21;9.10;;;6.50;;
16890;SDS011;8562;52.246;20.966;2023-07-29T03:29:46;9.03;;;6.27;;
16890;SDS011;8562;52.246;20.966;2023-07-29T03:32:11;9.47;;;6.43;;
16890;SDS011;8562;52.246;20.966;2023-07-29T03:34:37;10.73;;;7.43;;
16890;SDS011;8562;52.246;20.966;2023-07-29T03:37:02;9.47;;;6.87;;
16890;SDS011;8562;52.246;20.966;2023-07-29T03:39:27;10.30;;;7.10;;
16890;SDS011;8562;52.246;20.966;2023-07-29T03:41:53;8.13;;;6.47;;
16890;SDS011;8562;52.246;20.966;2023-07-29T03:44:18;10.23;;;8.13;;
16890;SDS011;8562;52.246;20.966;2023-07-29T03:46:44;10.30;;;7.50;;
16890;SDS011;8562;52.246;20.966;2023-07-29T03:49:10;11.77;;;7.57;;
16890;SDS011;8562;52.246;20.966;2023-07-29T03:51:35;9.90;;;7.60;;
16890;SDS011;8562;52.246;20.966;2023-07-29T03:54:00;10.07;;;6.77;;
16890;SDS011;8562;52.246;20.966;2023-07-29T03:56:26;9.23;;;6.67;;
16890;SDS011;8562;52.246;20.966;2023-07-29T03:58:51;10.33;;;7.13;;
16890;SDS011;8562;52.246;20.966;2023-07-29T04:01:17;11.97;;;7.70;;
16890;SDS011;8562;52.246;20.966;2023-07-29T04:03:44;9.93;;;7.20;;
16890;SDS011;8562;52.246;20.966;2023-07-29T04:06:11;9.90;;;7.37;;
16890;SDS011;8562;52.246;20.966;2023-07-29T04:08:36;9.57;;;7.30;;
16890;SDS011;8562;52.246;20.966;2023-07-29T04:11:02;8.30;;;7.00;;
16890;SDS011;8562;52.246;20.966;2023-07-29T04:13:27;8.30;;;6.53;;
16890;SDS011;8562;52.246;20.966;2023-07-29T04:15:53;10.03;;;6.97;;
16890;SDS011;8562;52.246;20.966;2023-07-29T04:18:18;8.77;;;7.20;;
16890;SDS011;8562;52.246;20.966;2023-07-29T04:20:44;9.83;;;6.63;;
16890;SDS011;8562;52.246;20.966;2023-07-29T04:23:09;8.27;;;6.30;;
16890;SDS011;8562;52.246;20.966;2023-07-29T04:25:35;9.97;;;7.53;;
16890;SDS011;8562;52.246;20.966;2023-07-29T04:28:00;9.50;;;6.73;;
16890;SDS011;8562;52.246;20.966;2023-07-29T04:30:28;8.80;;;6.80;;
16890;SDS011;8562;52.246;20.966;2023-07-29T04:32:53;8.87;;;6.60;;
16890;SDS011;8562;52.246;20.966;2023-07-29T04:35:18;8.00;;;6.43;;
16890;SDS011;8562;52.246;20.966;2023-07-29T04:37:44;9.43;;;6.97;;
16890;SDS011;8562;52.246;20.966;2023-07-29T04:40:10;7.90;;;6.13;;
16890;SDS011;8562;52.246;20.966;2023-07-29T04:42:36;9.63;;;6.83;;
16890;SDS011;8562;52.246;20.966;2023-07-29T04:45:01;8.33;;;6.73;;
16890;SDS011;8562;52.246;20.966;2023-07-29T04:47:30;8.83;;;6.57;;
16890;SDS011;8562;52.246;20.966;2023-07-29T04:49:56;7.50;;;5.67;;
16890;SDS011;8562;52.246;20.966;2023-07-29T04:52:21;9.50;;;6.73;;
16890;SDS011;8562;52.246;20.966;2023-07-29T04:54:47;8.70;;;6.63;;
16890;SDS011;8562;52.246;20.966;2023-07-29T04:57:12;9.23;;;6.47;;
16890;SDS011;8562;52.246;20.966;2023-07-29T04:59:37;11.57;;;7.67;;
16890;SDS011;8562;52.246;20.966;2023-07-29T05:02:03;9.17;;;6.73;;
16890;SDS011;8562;52.246;20.966;2023-07-29T05:04:28;8.20;;;6.93;;
16890;SDS011;8562;52.246;20.966;2023-07-29T05:06:53;10.60;;;7.13;;
16890;SDS011;8562;52.246;20.966;2023-07-29T05:09:19;9.13;;;7.37;;
16890;SDS011;8562;52.246;20.966;2023-07-29T05:11:45;10.87;;;8.13;;
16890;SDS011;8562;52.246;20.966;2023-07-29T05:14:11;10.27;;;7.60;;
16890;SDS011;8562;52.246;20.966;2023-07-29T05:16:36;10.83;;;7.83;;
16890;SDS011;8562;52.246;20.966;2023-07-29T05:19:01;11.03;;;7.70;;
16890;SDS011;8562;52.246;20.966;2023-07-29T05:21:27;12.47;;;9.10;;
16890;SDS011;8562;52.246;20.966;2023-07-29T05:23:52;11.97;;;8.23;;
16890;SDS011;8562;52.246;20.966;2023-07-29T05:26:17;11.27;;;8.50;;
16890;SDS011;8562;52.246;20.966;2023-07-29T05:28:42;11.53;;;9.13;;
16890;SDS011;8562;52.246;20.966;2023-07-29T05:31:08;11.50;;;8.53;;
16890;SDS011;8562;52.246;20.966;2023-07-29T05:33:34;11.03;;;9.13;;
16890;SDS011;8562;52.246;20.966;2023-07-29T05:36:01;11.93;;;9.57;;
16890;SDS011;8562;52.246;20.966;2023-07-29T05:38:26;10.50;;;9.40;;
16890;SDS011;8562;52.246;20.966;2023-07-29T05:40:52;11.13;;;9.13;;
16890;SDS011;8562;52.246;20.966;2023-07-29T05:43:17;13.47;;;8.83;;
16890;SDS011;8562;52.246;20.966;2023-07-29T05:45:42;10.50;;;8.50;;
16890;SDS011;8562;52.246;20.966;2023-07-29T05:48:08;11.73;;;9.13;;
16890;SDS011;8562;52.246;20.966;2023-07-29T05:50:33;11.63;;;9.17;;
16890;SDS011;8562;52.246;20.966;2023-07-29T05:52:59;13.10;;;10.50;;
16890;SDS011;8562;52.246;20.966;2023-07-29T05:55:25;14.20;;;10.37;;
16890;SDS011;8562;52.246;20.966;2023-07-29T05:57:50;17.67;;;11.83;;
16890;SDS011;8562;52.246;20.966;2023-07-29T06:00:16;14.43;;;11.87;;
16890;SDS011;8562;52.246;20.966;2023-07-29T06:02:41;14.17;;;11.00;;
16890;SDS011;8562;52.246;20.966;2023-07-29T06:05:09;12.80;;;10.60;;
16890;SDS011;8562;52.246;20.966;2023-07-29T06:07:34;16.00;;;12.90;;
16890;SDS011;8562;52.246;20.966;2023-07-29T06:10:00;13.33;;;11.10;;
16890;SDS011;8562;52.246;20.966;2023-07-29T06:12:25;18.17;;;12.27;;
16890;SDS011;8562;52.246;20.966;2023-07-29T06:14:51;15.10;;;11.60;;
16890;SDS011;8562;52.246;20.966;2023-07-29T06:17:16;13.70;;;10.63;;
16890;SDS011;8562;52.246;20.966;2023-07-29T06:19:41;13.20;;;9.83;;
16890;SDS011;8562;52.246;20.966;2023-07-29T06:22:07;12.90;;;10.40;;
16890;SDS011;8562;52.246;20.966;2023-07-29T06:24:32;11.10;;;8.93;;
16890;SDS011;8562;52.246;20.966;2023-07-29T06:26:58;12.10;;;9.57;;
16890;SDS011;8562;52.246;20.966;2023-07-29T06:29:23;11.50;;;8.93;;
16890;SDS011;8562;52.246;20.966;2023-07-29T06:31:48;11.67;;;9.80;;
16890;SDS011;8562;52.246;20.966;2023-07-29T06:34:13;12.13;;;10.27;;
16890;SDS011;8562;52.246;20.966;2023-07-29T06:36:39;10.90;;;8.40;;
16890;SDS011;8562;52.246;20.966;2023-07-29T06:39:04;9.23;;;7.33;;
16890;SDS011;8562;52.246;20.966;2023-07-29T06:41:29;9.50;;;7.50;;
16890;SDS011;8562;52.246;20.966;2023-07-29T06:43:55;8.13;;;6.93;;
16890;SDS011;8562;52.246;20.966;2023-07-29T06:46:21;8.13;;;7.30;;
16890;SDS011;8562;52.246;20.966;2023-07-29T06:48:46;9.83;;;8.30;;
16890;SDS011;8562;52.246;20.966;2023-07-29T06:51:11;8.60;;;7.63;;
16890;SDS011;8562;52.246;20.966;2023-07-29T06:53:37;8.13;;;7.20;;
16890;SDS011;8562;52.246;20.966;2023-07-29T06:56:02;8.97;;;6.93;;
16890;SDS011;8562;52.246;20.966;2023-07-29T06:58:28;11.17;;;7.73;;
16890;SDS011;8562;52.246;20.966;2023-07-29T07:00:53;11.90;;;7.90;;
16890;SDS011;8562;52.246;20.966;2023-07-29T07:03:18;9.03;;;7.53;;
16890;SDS011;8562;52.246;20.966;2023-07-29T07:05:43;9.70;;;7.97;;
16890;SDS011;8562;52.246;20.966;2023-07-29T07:08:09;9.10;;;7.10;;
16890;SDS011;8562;52.246;20.966;2023-07-29T07:10:34;16.23;;;7.93;;
16890;SDS011;8562;52.246;20.966;2023-07-29T07:12:59;10.43;;;6.90;;
16890;SDS011;8562;52.246;20.966;2023-07-29T07:15:25;7.70;;;6.57;;
16890;SDS011;8562;52.246;20.966;2023-07-29T07:17:50;7.70;;;6.90;;
16890;SDS011;8562;52.246;20.966;2023-07-29T07:20:16;8.13;;;7.33;;
16890;SDS011;8562;52.246;20.966;2023-07-29T07:22:41;9.03;;;7.63;;
16890;SDS011;8562;52.246;20.966;2023-07-29T07:25:06;9.00;;;7.33;;
16890;SDS011;8562;52.246;20.966;2023-07-29T07:27:32;8.13;;;6.83;;
16890;SDS011;8562;52.246;20.966;2023-07-29T07:29:57;9.17;;;6.33;;
16890;SDS011;8562;52.246;20.966;2023-07-29T07:32:22;7.73;;;6.90;;
16890;SDS011;8562;52.246;20.966;2023-07-29T07:34:48;7.93;;;5.77;;
16890;SDS011;8562;52.246;20.966;2023-07-29T07:37:13;7.07;;;6.37;;
16890;SDS011;8562;52.246;20.966;2023-07-29T07:39:38;6.67;;;5.97;;
16890;SDS011;8562;52.246;20.966;2023-07-29T07:42:04;6.87;;;5.67;;
16890;SDS011;8562;52.246;20.966;2023-07-29T07:44:29;9.17;;;7.60;;
16890;SDS011;8562;52.246;20.966;2023-07-29T07:46:54;6.43;;;5.83;;
16890;SDS011;8562;52.246;20.966;2023-07-29T07:49:20;8.17;;;6.00;;
16890;SDS011;8562;52.246;20.966;2023-07-29T07:51:45;5.20;;;4.73;;
16890;SDS011;8562;52.246;20.966;2023-07-29T07:54:10;10.67;;;4.77;;
16890;SDS011;8562;52.246;20.966;2023-07-29T07:56:35;6.37;;;5.03;;
16890;SDS011;8562;52.246;20.966;2023-07-29T07:59:01;6.83;;;4.67;;
16890;SDS011;8562;52.246;20.966;2023-07-29T08:01:26;5.03;;;4.53;;
16890;SDS011;8562;52.246;20.966;2023-07-29T08:03:51;5.37;;;4.80;;
16890;SDS011;8562;52.246;20.966;2023-07-29T08:06:17;8.77;;;4.43;;
16890;SDS011;8562;52.246;20.966;2023-07-29T08:08:42;6.07;;;4.57;;
16890;SDS011;8562;52.246;20.966;2023-07-29T08:11:07;5.40;;;4.33;;
16890;SDS011;8562;52.246;20.966;2023-07-29T08:13:32;5.87;;;4.30;;
16890;SDS011;8562;52.246;20.966;2023-07-29T08:15:58;4.80;;;4.27;;
16890;SDS011;8562;52.246;20.966;2023-07-29T08:18:23;8.23;;;4.43;;
16890;SDS011;8562;52.246;20.966;2023-07-29T08:20:55;5.17;;;4.20;;
16890;SDS011;8562;52.246;20.966;2023-07-29T08:23:23;4.37;;;3.97;;
16890;SDS011;8562;52.246;20.966;2023-07-29T08:25:56;4.30;;;3.90;;
16890;SDS011;8562;52.246;20.966;2023-07-29T08:28:26;4.43;;;3.90;;
16890;SDS011;8562;52.246;20.966;2023-07-29T08:30:51;4.13;;;3.33;;
16890;SDS011;8562;52.246;20.966;2023-07-29T08:33:16;4.37;;;3.53;;
16890;SDS011;8562;52.246;20.966;2023-07-29T08:35:42;7.77;;;4.33;;
16890;SDS011;8562;52.246;20.966;2023-07-29T08:38:07;3.47;;;3.17;;
16890;SDS011;8562;52.246;20.966;2023-07-29T08:40:32;3.27;;;2.90;;
16890;SDS011;8562;52.246;20.966;2023-07-29T08:43:00;3.30;;;3.00;;
16890;SDS011;8562;52.246;20.966;2023-07-29T08:45:27;3.37;;;3.03;;
16890;SDS011;8562;52.246;20.966;2023-07-29T08:47:54;3.43;;;3.13;;
16890;SDS011;8562;52.246;20.966;2023-07-29T08:50:20;3.70;;;3.00;;
16890;SDS011;8562;52.246;20.966;2023-07-29T08:52:46;3.37;;;2.80;;
16890;SDS011;8562;52.246;20.966;2023-07-29T08:55:12;3.57;;;2.30;;
16890;SDS011;8562;52.246;20.966;2023-07-29T08:57:37;3.93;;;2.30;;
16890;SDS011;8562;52.246;20.966;2023-07-29T09:00:03;2.00;;;1.90;;
16890;SDS011;8562;52.246;20.966;2023-07-29T09:02:28;3.07;;;1.83;;
16890;SDS011;8562;52.246;20.966;2023-07-29T09:04:54;1.77;;;1.67;;
16890;SDS011;8562;52.246;20.966;2023-07-29T09:07:19;2.10;;;1.80;;
16890;SDS011;8562;52.246;20.966;2023-07-29T09:09:45;2.13;;;1.80;;
16890;SDS011;8562;52.246;20.966;2023-07-29T09:12:10;2.67;;;1.80;;
16890;SDS011;8562;52.246;20.966;2023-07-29T09:14:37;2.40;;;2.20;;
16890;SDS011;8562;52.246;20.966;2023-07-29T09:17:02;2.27;;;2.07;;
16890;SDS011;8562;52.246;20.966;2023-07-29T09:19:27;2.20;;;2.00;;
16890;SDS011;8562;52.246;20.966;2023-07-29T09:21:53;1.50;;;1.40;;
16890;SDS011;8562;52.246;20.966;2023-07-29T09:24:18;2.60;;;1.90;;
16890;SDS011;8562;52.246;20.966;2023-07-29T09:26:49;2.07;;;1.87;;
16890;SDS011;8562;52.246;20.966;2023-07-29T09:29:15;1.77;;;1.57;;
16890;SDS011;8562;52.246;20.966;2023-07-29T09:31:41;1.83;;;1.73;;
16890;SDS011;8562;52.246;20.966;2023-07-29T09:34:06;1.77;;;1.67;;
16890;SDS011;8562;52.246;20.966;2023-07-29T09:36:31;2.00;;;1.70;;
16890;SDS011;8562;52.246;20.966;2023-07-29T09:38:57;1.50;;;1.40;;
16890;SDS011;8562;52.246;20.966;2023-07-29T09:41:23;1.70;;;1.60;;
16890;SDS011;8562;52.246;20.966;2023-07-29T09:43:54;1.77;;;1.67;;
16890;SDS011;8562;52.246;20.966;2023-07-29T09:46:22;1.77;;;1.67;;
16890;SDS011;8562;52.246;20.966;2023-07-29T09:48:47;1.70;;;1.60;;
16890;SDS011;8562;52.246;20.966;2023-07-29T09:51:15;1.83;;;1.40;;
16890;SDS011;8562;52.246;20.966;2023-07-29T09:53:44;1.67;;;1.57;;
16890;SDS011;8562;52.246;20.966;2023-07-29T09:56:09;2.00;;;1.70;;
16890;SDS011;8562;52.246;20.966;2023-07-29T09:58:35;1.40;;;1.30;;
16890;SDS011;8562;52.246;20.966;2023-07-29T10:01:03;1.60;;;1.50;;
16890;SDS011;8562;52.246;20.966;2023-07-29T10:03:28;2.37;;;1.40;;
16890;SDS011;8562;52.246;20.966;2023-07-29T10:05:54;1.83;;;1.43;;
16890;SDS011;8562;52.246;20.966;2023-07-29T10:08:20;1.53;;;1.43;;
16890;SDS011;8562;52.246;20.966;2023-07-29T10:10:47;1.53;;;1.13;;
16890;SDS011;8562;52.246;20.966;2023-07-29T10:13:14;1.50;;;1.33;;
16890;SDS011;8562;52.246;20.966;2023-07-29T10:15:40;1.50;;;1.40;;
16890;SDS011;8562;52.246;20.966;2023-07-29T10:18:05;1.50;;;1.40;;
16890;SDS011;8562;52.246;20.966;2023-07-29T10:20:31;1.37;;;1.27;;
16890;SDS011;8562;52.246;20.966;2023-07-29T10:22:59;2.50;;;1.73;;
16890;SDS011;8562;52.246;20.966;2023-07-29T10:25:24;2.83;;;1.60;;
16890;SDS011;8562;52.246;20.966;2023-07-29T10:30:15;1.80;;;1.70;;
16890;SDS011;8562;52.246;20.966;2023-07-29T10:32:41;2.23;;;1.77;;
16890;SDS011;8562;52.246;20.966;2023-07-29T10:35:08;3.47;;;2.07;;
16890;SDS011;8562;52.246;20.966;2023-07-29T10:37:33;1.97;;;1.70;;
16890;SDS011;8562;52.246;20.966;2023-07-29T10:39:59;1.50;;;1.30;;
16890;SDS011;8562;52.246;20.966;2023-07-29T10:42:24;1.90;;;1.70;;
16890;SDS011;8562;52.246;20.966;2023-07-29T10:44:50;1.43;;;1.33;;
16890;SDS011;8562;52.246;20.966;2023-07-29T10:47:20;1.70;;;1.60;;
16890;SDS011;8562;52.246;20.966;2023-07-29T10:49:46;1.97;;;1.57;;
16890;SDS011;8562;52.246;20.966;2023-07-29T10:52:15;1.50;;;1.40;;
16890;SDS011;8562;52.246;20.966;2023-07-29T10:54:46;2.00;;;1.50;;
16890;SDS011;8562;52.246;20.966;2023-07-29T10:57:33;1.00;;;1.00;;
16890;SDS011;8562;52.246;20.966;2023-07-29T10:59:57;1.47;;;1.30;;
16890;SDS011;8562;52.246;20.966;2023-07-29T11:02:30;1.50;;;1.40;;
16890;SDS011;8562;52.246;20.966;2023-07-29T11:04:56;1.40;;;1.30;;
16890;SDS011;8562;52.246;20.966;2023-07-29T11:07:30;1.93;;;1.50;;
16890;SDS011;8562;52.246;20.966;2023-07-29T11:09:59;1.40;;;1.30;;
16890;SDS011;8562;52.246;20.966;2023-07-29T11:12:34;1.63;;;1.50;;
16890;SDS011;8562;52.246;20.966;2023-07-29T11:15:03;1.67;;;1.30;;
16890;SDS011;8562;52.246;20.966;2023-07-29T11:17:29;2.80;;;1.50;;
16890;SDS011;8562;52.246;20.966;2023-07-29T11:19:56;3.03;;;1.67;;
16890;SDS011;8562;52.246;20.966;2023-07-29T11:22:25;2.00;;;1.60;;
16890;SDS011;8562;52.246;20.966;2023-07-29T11:24:50;1.97;;;1.60;;
16890;SDS011;8562;52.246;20.966;2023-07-29T11:27:15;1.50;;;1.20;;
16890;SDS011;8562;52.246;20.966;2023-07-29T11:29:41;1.83;;;1.47;;
16890;SDS011;8562;52.246;20.966;2023-07-29T11:32:06;2.47;;;1.70;;
16890;SDS011;8562;52.246;20.966;2023-07-29T11:34:32;1.30;;;1.20;;
16890;SDS011;8562;52.246;20.966;2023-07-29T11:36:57;1.97;;;1.77;;
16890;SDS011;8562;52.246;20.966;2023-07-29T11:39:22;1.60;;;1.50;;
16890;SDS011;8562;52.246;20.966;2023-07-29T11:41:48;1.33;;;1.23;;
16890;SDS011;8562;52.246;20.966;2023-07-29T11:44:16;1.73;;;1.37;;
16890;SDS011;8562;52.246;20.966;2023-07-29T11:46:42;1.40;;;1.30;;
16890;SDS011;8562;52.246;20.966;2023-07-29T11:49:08;1.23;;;1.00;;
16890;SDS011;8562;52.246;20.966;2023-07-29T11:51:33;1.97;;;1.60;;
16890;SDS011;8562;52.246;20.966;2023-07-29T11:53:58;2.17;;;1.87;;
16890;SDS011;8562;52.246;20.966;2023-07-29T11:56:24;1.90;;;1.70;;
16890;SDS011;8562;52.246;20.966;2023-07-29T11:58:50;1.40;;;1.30;;
16890;SDS011;8562;52.246;20.966;2023-07-29T12:01:15;1.87;;;1.70;;
16890;SDS011;8562;52.246;20.966;2023-07-29T12:03:40;1.50;;;1.40;;
16890;SDS011;8562;52.246;20.966;2023-07-29T12:06:06;2.13;;;1.57;;
16890;SDS011;8562;52.246;20.966;2023-07-29T12:08:32;1.53;;;1.43;;
16890;SDS011;8562;52.246;20.966;2023-07-29T12:10:57;1.90;;;1.70;;
16890;SDS011;8562;52.246;20.966;2023-07-29T12:13:25;2.00;;;1.80;;
16890;SDS011;8562;52.246;20.966;2023-07-29T12:15:51;2.23;;;1.77;;
16890;SDS011;8562;52.246;20.966;2023-07-29T12:18:16;1.63;;;1.53;;
16890;SDS011;8562;52.246;20.966;2023-07-29T12:20:42;2.30;;;1.87;;
16890;SDS011;8562;52.246;20.966;2023-07-29T12:23:08;1.67;;;1.47;;
16890;SDS011;8562;52.246;20.966;2023-07-29T12:25:33;1.80;;;1.70;;
16890;SDS011;8562;52.246;20.966;2023-07-29T12:28:03;3.47;;;1.63;;
16890;SDS011;8562;52.246;20.966;2023-07-29T12:30:28;1.63;;;1.53;;
16890;SDS011;8562;52.246;20.966;2023-07-29T12:32:53;1.47;;;1.37;;
16890;SDS011;8562;52.246;20.966;2023-07-29T12:35:19;1.70;;;1.57;;
16890;SDS011;8562;52.246;20.966;2023-07-29T12:37:44;2.43;;;1.63;;
16890;SDS011;8562;52.246;20.966;2023-07-29T12:40:30;2.40;;;1.80;;
16890;SDS011;8562;52.246;20.966;2023-07-29T12:42:55;2.10;;;1.90;;
16890;SDS011;8562;52.246;20.966;2023-07-29T12:45:20;2.23;;;1.70;;
16890;SDS011;8562;52.246;20.966;2023-07-29T12:47:51;2.30;;;1.63;;
16890;SDS011;8562;52.246;20.966;2023-07-29T12:50:17;1.67;;;1.57;;
16890;SDS011;8562;52.246;20.966;2023-07-29T12:52:42;1.60;;;1.50;;
16890;SDS011;8562;52.246;20.966;2023-07-29T12:55:08;1.57;;;1.47;;
16890;SDS011;8562;52.246;20.966;2023-07-29T12:57:34;1.50;;;1.37;;
16890;SDS011;8562;52.246;20.966;2023-07-29T12:59:59;1.60;;;1.50;;
16890;SDS011;8562;52.246;20.966;2023-07-29T13:02:24;1.60;;;1.23;;
16890;SDS011;8562;52.246;20.966;2023-07-29T13:04:50;1.67;;;1.43;;
16890;SDS011;8562;52.246;20.966;2023-07-29T13:07:15;1.60;;;1.50;;
16890;SDS011;8562;52.246;20.966;2023-07-29T13:09:40;2.13;;;1.53;;
16890;SDS011;8562;52.246;20.966;2023-07-29T13:12:06;5.47;;;1.53;;
16890;SDS011;8562;52.246;20.966;2023-07-29T13:14:31;1.80;;;1.70;;
16890;SDS011;8562;52.246;20.966;2023-07-29T13:16:56;1.70;;;1.60;;
16890;SDS011;8562;52.246;20.966;2023-07-29T13:19:22;6.23;;;1.63;;
16890;SDS011;8562;52.246;20.966;2023-07-29T13:21:47;1.70;;;1.60;;
16890;SDS011;8562;52.246;20.966;2023-07-29T13:24:12;1.87;;;1.67;;
16890;SDS011;8562;52.246;20.966;2023-07-29T13:26:37;2.77;;;2.00;;
16890;SDS011;8562;52.246;20.966;2023-07-29T13:29:03;2.00;;;1.77;;
16890;SDS011;8562;52.246;20.966;2023-07-29T13:31:29;2.30;;;1.60;;
16890;SDS011;8562;52.246;20.966;2023-07-29T13:33:55;1.70;;;1.60;;
16890;SDS011;8562;52.246;20.966;2023-07-29T13:36:20;1.50;;;1.40;;
16890;SDS011;8562;52.246;20.966;2023-07-29T13:38:46;2.57;;;1.83;;
16890;SDS011;8562;52.246;20.966;2023-07-29T13:41:11;3.90;;;1.70;;
16890;SDS011;8562;52.246;20.966;2023-07-29T13:43:36;1.57;;;1.47;;
16890;SDS011;8562;52.246;20.966;2023-07-29T13:46:02;1.83;;;1.40;;
16890;SDS011;8562;52.246;20.966;2023-07-29T13:48:27;1.80;;;1.70;;
16890;SDS011;8562;52.246;20.966;2023-07-29T13:50:52;1.77;;;1.43;;
16890;SDS011;8562;52.246;20.966;2023-07-29T13:53:17;5.13;;;2.00;;
16890;SDS011;8562;52.246;20.966;2023-07-29T13:55:43;2.23;;;1.60;;
16890;SDS011;8562;52.246;20.966;2023-07-29T13:58:08;2.90;;;1.70;;
16890;SDS011;8562;52.246;20.966;2023-07-29T14:00:33;1.93;;;1.73;;
16890;SDS011;8562;52.246;20.966;2023-07-29T14:02:59;1.50;;;1.37;;
16890;SDS011;8562;52.246;20.966;2023-07-29T14:05:24;1.40;;;1.30;;
16890;SDS011;8562;52.246;20.966;2023-07-29T14:07:49;1.87;;;1.70;;
16890;SDS011;8562;52.246;20.966;2023-07-29T14:10:14;2.60;;;1.60;;
16890;SDS011;8562;52.246;20.966;2023-07-29T14:12:40;1.73;;;1.63;;
16890;SDS011;8562;52.246;20.966;2023-07-29T14:15:05;1.50;;;1.40;;
16890;SDS011;8562;52.246;20.966;2023-07-29T14:17:31;1.80;;;1.67;;
16890;SDS011;8562;52.246;20.966;2023-07-29T14:19:56;1.47;;;1.37;;
16890;SDS011;8562;52.246;20.966;2023-07-29T14:22:22;2.70;;;1.80;;
16890;SDS011;8562;52.246;20.966;2023-07-29T14:24:47;1.93;;;1.73;;
16890;SDS011;8562;52.246;20.966;2023-07-29T14:27:12;1.97;;;1.77;;
16890;SDS011;8562;52.246;20.966;2023-07-29T14:29:37;1.50;;;1.40;;
16890;SDS011;8562;52.246;20.966;2023-07-29T14:32:03;1.87;;;1.77;;
16890;SDS011;8562;52.246;20.966;2023-07-29T14:34:28;1.67;;;1.57;;
16890;SDS011;8562;52.246;20.966;2023-07-29T14:36:54;1.87;;;1.67;;
16890;SDS011;8562;52.246;20.966;2023-07-29T14:39:19;1.53;;;1.43;;
16890;SDS011;8562;52.246;20.966;2023-07-29T14:41:44;1.50;;;1.40;;
16890;SDS011;8562;52.246;20.966;2023-07-29T14:44:10;2.00;;;1.80;;
16890;SDS011;8562;52.246;20.966;2023-07-29T14:46:35;1.53;;;1.43;;